Time;durP1;ratioP1;P1;durP2;ratioP2;P2;SDS_P1;SDS_P2;PMS_P1;PMS_P2;Temp;Humidity;BMP_temperature;BMP_pressure;BME280_temperature;BME280_humidity;BME280_pressure;Samples;Min_cycle;Max_cycle;Signal;HPM_P1;HPM_P2
2021/12/02 00:01:08;;;;;;;77.07;40.92;;;27.40;99.90;;;;;;5052432;28;20025;-66
2021/12/02 00:03:36;;;;;;;85.38;41.03;;;27.50;99.90;;;;;;5050457;28;20064;-66
2021/12/02 00:06:07;;;;;;;75.43;43.38;;;27.50;99.90;;;;;;5053168;28;20052;-66
2021/12/02 00:08:34;;;;;;;88.00;42.30;;;27.50;99.90;;;;;;5053085;28;20104;-66
2021/12/02 00:11:01;;;;;;;71.13;37.78;;;27.60;99.90;;;;;;5052930;28;20025;-66
2021/12/02 00:13:29;;;;;;;84.43;42.47;;;27.70;99.90;;;;;;5053023;28;20032;-66
2021/12/02 00:16:18;;;;;;;78.60;41.40;;;27.80;99.90;;;;;;5052721;28;20021;-67
2021/12/02 00:21:21;;;;;;;80.90;41.20;;;27.70;99.90;;;;;;5052417;28;20487;-66
2021/12/02 00:23:47;;;;;;;73.68;44.55;;;27.80;99.90;;;;;;5052700;28;20040;-66
2021/12/02 00:26:17;;;;;;;74.63;43.47;;;27.80;99.90;;;;;;5052587;28;20021;-66
2021/12/02 00:28:44;;;;;;;75.07;43.65;;;27.80;99.90;;;;;;5052895;28;20029;-67
2021/12/02 00:31:16;;;;;;;84.72;44.78;;;27.80;99.90;;;;;;5056246;28;20124;-67
2021/12/02 00:33:48;;;;;;;73.07;43.67;;;27.90;99.90;;;;;;5056688;28;20029;-66
2021/12/02 00:36:16;;;;;;;80.80;44.38;;;27.90;99.90;;;;;;5056238;28;20040;-68
2021/12/02 00:38:46;;;;;;;76.68;41.75;;;27.90;99.90;;;;;;5056534;28;20036;-67
2021/12/02 00:41:16;;;;;;;74.03;42.35;;;28.00;99.90;;;;;;5055847;28;20364;-67
2021/12/02 00:43:44;;;;;;;64.57;39.20;;;28.10;99.90;;;;;;5056155;28;20075;-67
2021/12/02 00:46:14;;;;;;;75.20;41.90;;;28.10;99.90;;;;;;5056477;28;20021;-66
2021/12/02 00:48:42;;;;;;;59.58;38.15;;;28.20;99.90;;;;;;5056009;28;20108;-67
2021/12/02 00:51:10;;;;;;;67.78;35.75;;;28.30;99.90;;;;;;5055976;28;20031;-67
2021/12/02 00:53:42;;;;;;;60.08;33.10;;;28.30;99.90;;;;;;5054775;28;20391;-65
2021/12/02 00:56:09;;;;;;;;;;;28.30;99.90;;;;;;5056289;28;20025;-67
2021/12/02 00:58:37;;;;;;;49.15;24.02;;;28.40;99.90;;;;;;5055911;28;19930;-67
2021/12/02 01:01:04;;;;;;;27.83;13.88;;;28.50;99.90;;;;;;5055704;28;20084;-66
2021/12/02 01:03:35;;;;;;;29.75;16.60;;;28.70;99.90;;;;;;5055516;28;20532;-66
2021/12/02 01:06:06;;;;;;;24.50;13.25;;;28.90;99.90;;;;;;5055768;28;20029;-66
2021/12/02 01:08:35;;;;;;;24.20;12.30;;;28.90;99.90;;;;;;5055730;28;20021;-67
2021/12/02 01:11:04;;;;;;;24.05;10.50;;;29.10;99.90;;;;;;5055757;28;20505;-66
2021/12/02 01:13:31;;;;;;;20.65;10.68;;;29.30;99.90;;;;;;5055105;28;20127;-66
2021/12/02 01:15:58;;;;;;;18.17;9.45;;;29.40;99.90;;;;;;5055539;28;20387;-67
2021/12/02 01:18:25;;;;;;;19.30;10.55;;;29.60;99.90;;;;;;5055559;28;20021;-67
2021/12/02 01:20:53;;;;;;;13.98;8.82;;;29.80;99.90;;;;;;5055479;28;20025;-66
2021/12/02 01:23:22;;;;;;;22.20;9.48;;;29.90;99.90;;;;;;5055149;28;20029;-66
2021/12/02 01:25:55;;;;;;;27.40;9.15;;;30.00;99.90;;;;;;5054991;28;20475;-68
2021/12/02 01:28:25;;;;;;;16.38;7.45;;;30.20;99.90;;;;;;5053662;28;20039;-67
2021/12/02 01:30:53;;;;;;;16.83;8.15;;;30.30;99.90;;;;;;5053116;28;20032;-66
2021/12/02 01:33:22;;;;;;;18.27;9.82;;;30.30;99.90;;;;;;5053187;28;20025;-66
2021/12/02 01:35:51;;;;;;;18.98;10.10;;;30.10;99.90;;;;;;5053733;28;20465;-66
2021/12/02 01:38:21;;;;;;;19.00;10.15;;;30.10;99.90;;;;;;5054281;28;20075;-66
2021/12/02 01:40:48;;;;;;;20.52;10.98;;;30.00;99.90;;;;;;5053392;28;20476;-66
2021/12/02 01:43:18;;;;;;;15.75;9.20;;;30.00;99.90;;;;;;5054565;28;20029;-67
2021/12/02 01:45:45;;;;;;;15.98;9.25;;;30.00;99.90;;;;;;5055096;28;20079;-67
2021/12/02 01:48:22;;;;;;;20.17;11.23;;;29.90;99.90;;;;;;5054732;28;20036;-68
2021/12/02 01:51:01;;;;;;;17.35;10.93;;;29.70;99.90;;;;;;5054721;28;20032;-69
2021/12/02 01:53:33;;;;;;;18.17;11.45;;;29.60;99.90;;;;;;5054766;28;20079;-68
2021/12/02 01:56:13;;;;;;;17.58;10.82;;;29.60;99.90;;;;;;5047546;28;20053;-67
2021/12/02 01:58:51;;;;;;;18.65;10.15;;;29.50;99.90;;;;;;5034910;28;20079;-68
2021/12/02 02:01:24;;;;;;;18.77;11.93;;;29.50;99.90;;;;;;5050998;28;20395;-67
2021/12/02 02:03:52;;;;;;;12.75;10.07;;;29.60;99.90;;;;;;5053123;28;20052;-67
2021/12/02 02:06:28;;;;;;;18.42;10.60;;;29.60;99.90;;;;;;5054523;28;20029;-67
2021/12/02 02:08:58;;;;;;;16.17;9.88;;;29.90;99.90;;;;;;5054884;28;20434;-66
2021/12/02 02:11:28;;;;;;;19.48;11.40;;;30.00;99.90;;;;;;5054576;28;20068;-67
2021/12/02 02:13:55;;;;;;;38.10;20.02;;;30.20;99.90;;;;;;5054686;28;20035;-67
2021/12/02 02:16:22;;;;;;;24.65;12.45;;;30.20;99.90;;;;;;5053162;28;20020;-67
2021/12/02 02:18:49;;;;;;;19.48;12.27;;;30.20;99.90;;;;;;5054795;28;20055;-67
2021/12/02 02:21:20;;;;;;;31.05;19.45;;;30.40;99.20;;;;;;5054432;28;20029;-67
2021/12/02 02:23:51;;;;;;;25.98;14.18;;;30.50;99.90;;;;;;5054275;28;20493;-68
2021/12/02 02:26:23;;;;;;;165.20;115.72;;;30.60;99.90;;;;;;5054118;28;20021;-66
2021/12/02 02:28:50;;;;;;;25.30;16.92;;;30.50;99.90;;;;;;5054374;28;20108;-67
2021/12/02 02:31:18;;;;;;;33.05;23.02;;;30.60;99.90;;;;;;5054279;28;20068;-67
2021/12/02 02:33:49;;;;;;;24.45;15.13;;;30.60;99.90;;;;;;5054166;28;20052;-66
2021/12/02 02:36:18;;;;;;;22.42;15.13;;;30.50;99.90;;;;;;5054076;28;20055;-69
2021/12/02 02:38:54;;;;;;;22.20;14.30;;;30.60;99.90;;;;;;5054140;28;20078;-67
2021/12/02 02:41:23;;;;;;;24.95;13.25;;;30.70;99.90;;;;;;5054317;28;20048;-66
2021/12/02 02:43:53;;;;;;;25.05;13.73;;;30.70;99.60;;;;;;5047626;28;20021;-66
2021/12/02 02:46:23;;;;;;;24.83;13.27;;;30.70;99.90;;;;;;5054376;28;20064;-67
2021/12/02 02:48:50;;;;;;;16.17;10.55;;;30.80;98.10;;;;;;5053759;28;20040;-68
2021/12/02 02:51:17;;;;;;;17.52;10.70;;;30.70;95.90;;;;;;5053041;28;20059;-67
2021/12/02 02:53:44;;;;;;;23.48;11.10;;;30.90;94.60;;;;;;5054117;28;20029;-67
2021/12/02 02:56:15;;;;;;;17.60;10.25;;;31.00;91.80;;;;;;5053501;28;20033;-65
2021/12/02 03:01:32;;;;;;;19.70;9.50;;;31.30;90.70;;;;;;5053902;28;20079;-67
2021/12/02 03:09:16;;;;;;;25.48;13.07;;;31.50;83.50;;;;;;5053521;28;20029;-67
2021/12/02 03:11:48;;;;;;;26.50;15.90;;;31.50;86.80;;;;;;5050616;28;20028;-66
2021/12/02 03:14:20;;;;;;;25.73;16.02;;;31.40;86.40;;;;;;5054085;28;20025;-65
2021/12/02 03:16:47;;;;;;;25.58;15.52;;;31.30;85.80;;;;;;5053439;28;20518;-67
2021/12/02 03:19:22;;;;;;;26.45;16.05;;;31.20;87.80;;;;;;5053753;28;20051;-68
2021/12/02 03:21:49;;;;;;;24.85;14.95;;;31.20;87.10;;;;;;5044279;28;20021;-66
2021/12/02 03:24:16;;;;;;;23.92;14.38;;;31.20;89.10;;;;;;5045566;28;20457;-67
2021/12/02 03:26:42;;;;;;;23.13;13.18;;;31.20;88.30;;;;;;5042408;28;20029;-67
2021/12/02 03:29:09;;;;;;;19.15;13.23;;;31.20;86.00;;;;;;5039950;28;20368;-67
2021/12/02 03:31:36;;;;;;;22.08;14.02;;;31.30;85.20;;;;;;5043017;28;20048;-67
2021/12/02 03:34:05;;;;;;;18.05;13.25;;;31.40;86.10;;;;;;5048260;28;20046;-65
2021/12/02 03:36:32;;;;;;;33.08;18.00;;;31.50;85.70;;;;;;5044318;28;20025;-66
2021/12/02 03:38:58;;;;;;;25.80;19.17;;;31.60;84.80;;;;;;5045674;28;20033;-67
2021/12/02 03:41:25;;;;;;;25.63;18.67;;;31.60;82.30;;;;;;5047612;28;20049;-67
2021/12/02 03:43:52;;;;;;;32.17;18.63;;;31.50;83.50;;;;;;5046748;28;20514;-66
2021/12/02 03:46:23;;;;;;;21.20;12.18;;;31.50;85.60;;;;;;5048657;28;20037;-65
2021/12/02 03:48:52;;;;;;;20.67;15.57;;;31.70;78.60;;;;;;5041191;28;20021;-66
2021/12/02 03:51:19;;;;;;;22.25;16.77;;;31.90;78.60;;;;;;5045380;28;20071;-67
2021/12/02 03:53:47;;;;;;;21.67;17.25;;;32.00;80.20;;;;;;5042278;28;20029;-66
2021/12/02 03:56:14;;;;;;;28.42;17.83;;;31.90;78.60;;;;;;5043743;28;20387;-66
2021/12/02 03:58:44;;;;;;;24.52;16.75;;;31.90;80.70;;;;;;5049053;28;20029;-65
2021/12/02 04:01:13;;;;;;;20.33;13.70;;;31.80;81.80;;;;;;5048272;28;20424;-66
2021/12/02 04:03:40;;;;;;;31.52;15.70;;;32.00;77.50;;;;;;5043556;28;20507;-67
2021/12/02 04:06:07;;;;;;;19.77;12.18;;;32.10;78.80;;;;;;5043891;28;20032;-67
2021/12/02 04:16:23;;;;;;;21.70;13.95;;;32.30;76.60;;;;;;5049520;28;20383;-67
2021/12/02 04:18:51;;;;;;;20.05;13.02;;;32.40;75.40;;;;;;5049137;28;20017;-66
2021/12/02 04:21:18;;;;;;;19.02;11.45;;;32.50;75.50;;;;;;5051722;28;20399;-66
2021/12/02 04:23:44;;;;;;;21.73;12.40;;;32.70;78.20;;;;;;5051230;28;20025;-67
2021/12/02 04:26:11;;;;;;;14.52;10.90;;;32.70;78.50;;;;;;5047728;28;20071;-68
2021/12/02 04:28:38;;;;;;;15.80;10.98;;;32.70;77.70;;;;;;5047073;28;20068;-66
2021/12/02 04:31:05;;;;;;;17.52;8.90;;;32.90;75.30;;;;;;5048844;28;20419;-67
2021/12/02 04:33:32;;;;;;;17.60;8.95;;;32.90;72.50;;;;;;5053217;28;20511;-66
2021/12/02 04:36:00;;;;;;;10.95;8.75;;;32.80;71.30;;;;;;5051897;28;20084;-67
2021/12/02 04:38:30;;;;;;;14.65;9.82;;;32.80;73.40;;;;;;5042297;28;20025;-66
2021/12/02 04:40:57;;;;;;;12.93;9.25;;;32.80;72.00;;;;;;5050002;28;20146;-65
2021/12/02 04:43:25;;;;;;;30.98;19.75;;;32.60;73.60;;;;;;5048089;28;20074;-66
2021/12/02 04:45:52;;;;;;;13.80;10.80;;;32.80;72.30;;;;;;5045018;28;20036;-67
2021/12/02 04:48:20;;;;;;;17.65;10.48;;;32.90;72.60;;;;;;5042011;28;20030;-66
2021/12/02 04:50:47;;;;;;;32.08;15.85;;;32.80;71.40;;;;;;5052108;28;20029;-68
2021/12/02 04:53:14;;;;;;;23.67;17.83;;;33.00;71.50;;;;;;5047484;28;20041;-69
2021/12/02 04:55:41;;;;;;;16.50;10.02;;;33.00;74.10;;;;;;5047671;28;20104;-68
2021/12/02 04:58:12;;;;;;;18.20;8.90;;;33.00;72.40;;;;;;5046357;28;20424;-67
2021/12/02 05:00:38;;;;;;;10.52;8.63;;;33.10;73.10;;;;;;5047068;28;20017;-66
2021/12/02 05:03:05;;;;;;;11.10;7.25;;;33.00;70.80;;;;;;5046286;28;20385;-66
2021/12/02 05:05:33;;;;;;;11.52;7.68;;;32.90;68.20;;;;;;5046349;28;20483;-68
2021/12/02 05:08:03;;;;;;;10.75;6.38;;;32.80;70.00;;;;;;5044890;28;20147;-67
2021/12/02 05:10:29;;;;;;;15.27;7.57;;;33.00;68.10;;;;;;5044180;28;20071;-67
2021/12/02 05:12:56;;;;;;;13.00;7.78;;;33.10;68.00;;;;;;5044850;28;20468;-67
2021/12/02 05:15:24;;;;;;;11.48;7.50;;;33.20;69.40;;;;;;5041022;28;20484;-68
2021/12/02 05:17:51;;;;;;;26.10;22.00;;;33.20;68.60;;;;;;5044093;28;20387;-68
2021/12/02 05:20:18;;;;;;;8.95;6.13;;;33.30;70.00;;;;;;5042035;28;20036;-68
2021/12/02 05:22:53;;;;;;;11.50;6.63;;;33.30;68.50;;;;;;5045110;28;20033;-68
2021/12/02 05:25:20;;;;;;;11.55;8.30;;;33.20;71.20;;;;;;5047663;28;20028;-67
2021/12/02 05:27:47;;;;;;;12.85;8.77;;;33.50;69.30;;;;;;5049379;28;20013;-65
2021/12/02 05:30:13;;;;;;;8.70;6.60;;;33.60;70.40;;;;;;5044816;28;20489;-66
2021/12/02 05:32:41;;;;;;;12.23;7.32;;;33.70;69.10;;;;;;5045870;28;20057;-66
2021/12/02 05:35:08;;;;;;;8.85;5.70;;;33.70;70.70;;;;;;5044126;28;20471;-67
2021/12/02 05:37:35;;;;;;;10.82;6.88;;;33.60;69.50;;;;;;5048165;28;20040;-67
2021/12/02 05:40:02;;;;;;;13.77;7.90;;;33.70;68.70;;;;;;5044351;28;20097;-66
2021/12/02 05:42:28;;;;;;;9.27;6.90;;;33.80;70.00;;;;;;5046773;28;20143;-68
2021/12/02 05:44:55;;;;;;;8.52;6.15;;;33.90;69.40;;;;;;5043585;28;20030;-68
2021/12/02 05:47:25;;;;;;;10.25;6.57;;;33.90;67.60;;;;;;5041447;28;20539;-68
2021/12/02 05:49:51;;;;;;;19.50;7.13;;;33.90;66.50;;;;;;5042699;28;20155;-67
2021/12/02 05:52:18;;;;;;;12.55;6.75;;;33.80;67.50;;;;;;5043273;28;20033;-66
2021/12/02 05:54:45;;;;;;;9.82;6.13;;;33.80;69.00;;;;;;5041393;28;20224;-67
2021/12/02 05:57:11;;;;;;;11.10;7.10;;;33.60;68.20;;;;;;5050797;28;20147;-68
2021/12/02 05:59:38;;;;;;;17.38;11.15;;;33.60;69.90;;;;;;5054386;28;20025;-67
2021/12/02 06:02:07;;;;;;;10.85;7.75;;;33.40;70.00;;;;;;5054794;28;20025;-67
2021/12/02 06:04:37;;;;;;;17.95;7.35;;;33.30;69.20;;;;;;5052897;28;20041;-68
2021/12/02 06:07:04;;;;;;;10.73;6.82;;;33.20;71.10;;;;;;5044883;28;20063;-69
2021/12/02 06:09:31;;;;;;;13.70;7.22;;;33.20;69.90;;;;;;5047678;28;20035;-68
2021/12/02 06:11:58;;;;;;;14.88;6.72;;;33.10;71.00;;;;;;5043382;28;20028;-69
2021/12/02 06:14:25;;;;;;;12.88;7.70;;;33.10;71.40;;;;;;5046635;28;20029;-69
2021/12/02 06:17:00;;;;;;;23.55;10.10;;;33.10;70.80;;;;;;5045077;28;20041;-68
2021/12/02 06:19:27;;;;;;;12.82;7.72;;;33.20;71.90;;;;;;5046571;28;20431;-69
2021/12/02 06:21:55;;;;;;;11.25;6.88;;;33.10;71.60;;;;;;5048159;28;20068;-67
2021/12/02 06:24:29;;;;;;;20.08;8.07;;;33.20;71.30;;;;;;5049723;28;20357;-67
2021/12/02 06:26:56;;;;;;;21.90;8.35;;;33.50;74.20;;;;;;5048199;28;20037;-68
2021/12/02 06:29:23;;;;;;;14.13;7.35;;;33.60;71.70;;;;;;5050850;28;20104;-68
2021/12/02 06:31:51;;;;;;;177.02;43.25;;;33.70;74.00;;;;;;5051927;28;20044;-68
2021/12/02 06:34:20;;;;;;;142.05;31.50;;;33.80;72.70;;;;;;5047561;28;20387;-66
2021/12/02 06:36:47;;;;;;;23.92;9.98;;;33.80;73.10;;;;;;5047080;28;20103;-68
2021/12/02 06:39:14;;;;;;;13.82;7.78;;;33.90;72.10;;;;;;5037856;28;20464;-68
2021/12/02 06:41:40;;;;;;;24.23;7.32;;;33.90;71.90;;;;;;5050014;28;20051;-68
2021/12/02 06:44:07;;;;;;;18.00;9.32;;;33.90;71.00;;;;;;5043592;28;20025;-68
2021/12/02 06:46:34;;;;;;;96.20;67.88;;;33.80;69.50;;;;;;5047895;28;20467;-67
2021/12/02 06:49:01;;;;;;;320.15;234.82;;;33.80;69.40;;;;;;5049059;28;20033;-67
2021/12/02 06:51:28;;;;;;;591.67;445.58;;;33.80;69.40;;;;;;5047874;28;20075;-68
2021/12/02 06:53:55;;;;;;;379.05;67.57;;;33.80;70.50;;;;;;5043980;28;20036;-67
2021/12/02 06:56:22;;;;;;;14.75;9.00;;;34.00;69.80;;;;;;5049176;28;20025;-67
2021/12/02 06:58:49;;;;;;;206.95;145.63;;;34.10;69.00;;;;;;5050056;28;20021;-67
2021/12/02 07:01:15;;;;;;;13.07;10.25;;;34.20;71.30;;;;;;5049731;28;20187;-66
2021/12/02 07:03:42;;;;;;;38.67;24.23;;;34.30;69.40;;;;;;5042308;28;20053;-67
2021/12/02 07:06:09;;;;;;;42.22;27.95;;;34.20;68.90;;;;;;5050636;28;20056;-66
2021/12/02 07:08:35;;;;;;;73.97;55.78;;;34.30;69.20;;;;;;5046085;28;20462;-67
2021/12/02 07:11:05;;;;;;;541.58;411.30;;;34.20;67.30;;;;;;5042903;28;20021;-66
2021/12/02 07:13:32;;;;;;;1648.07;947.35;;;34.20;66.70;;;;;;5046871;28;20029;-65
2021/12/02 07:16:00;;;;;;;35.38;24.65;;;34.20;67.90;;;;;;5050328;28;20033;-66
2021/12/02 07:18:26;;;;;;;22.05;13.52;;;34.40;68.30;;;;;;5050706;28;20111;-67
2021/12/02 07:20:54;;;;;;;896.33;597.10;;;34.70;67.40;;;;;;5044364;28;20505;-65
2021/12/02 07:23:22;;;;;;;27.63;17.30;;;34.60;67.10;;;;;;5043509;28;20032;-66
2021/12/02 07:25:49;;;;;;;12.20;8.10;;;34.60;66.50;;;;;;5044601;28;20030;-66
2021/12/02 07:28:16;;;;;;;10.70;7.97;;;34.80;64.60;;;;;;5046632;28;20082;-65
2021/12/02 07:30:46;;;;;;;12.40;7.90;;;34.70;62.60;;;;;;5048278;28;20067;-69
2021/12/02 07:33:14;;;;;;;18.52;10.77;;;34.80;61.70;;;;;;5046625;28;20380;-67
2021/12/02 07:35:41;;;;;;;14.05;8.23;;;34.70;62.10;;;;;;5046634;28;20079;-67
2021/12/02 07:38:08;;;;;;;309.15;235.70;;;34.60;63.30;;;;;;5048354;28;20021;-66
2021/12/02 07:40:36;;;;;;;17.15;12.27;;;34.60;65.20;;;;;;5045726;28;20025;-66
2021/12/02 07:43:07;;;;;;;12.70;9.18;;;34.50;63.10;;;;;;5047758;28;20044;-67
2021/12/02 07:45:37;;;;;;;18.67;9.80;;;34.50;63.00;;;;;;5042752;28;20025;-66
2021/12/02 07:48:05;;;;;;;105.05;67.07;;;34.50;63.90;;;;;;5042152;28;20037;-70
2021/12/02 07:50:34;;;;;;;14.27;10.30;;;34.50;63.80;;;;;;5042095;28;20104;-69
2021/12/02 07:53:05;;;;;;;15.05;9.65;;;34.40;64.10;;;;;;5042033;28;20079;-71
2021/12/02 07:55:37;;;;;;;15.85;9.68;;;34.50;64.20;;;;;;5044613;28;20530;-69
2021/12/02 07:58:07;;;;;;;23.80;14.63;;;34.40;62.70;;;;;;5039559;28;20021;-70
2021/12/02 08:00:35;;;;;;;23.98;10.02;;;34.50;64.50;;;;;;5019781;28;20480;-70
2021/12/02 08:03:06;;;;;;;14.30;8.93;;;34.50;63.70;;;;;;5048569;28;20411;-69
2021/12/02 08:05:33;;;;;;;15.55;8.80;;;34.50;64.70;;;;;;5047436;28;20071;-69
2021/12/02 08:08:00;;;;;;;15.60;10.45;;;34.50;63.50;;;;;;5048104;28;20312;-69
2021/12/02 08:10:28;;;;;;;12.07;8.90;;;34.60;62.10;;;;;;5049768;28;20767;-70
2021/12/02 08:12:57;;;;;;;21.27;11.43;;;34.50;62.70;;;;;;5080074;22;20061;-68
2021/12/02 08:15:25;;;;;;;264.17;148.65;;;34.50;62.20;;;;;;5033527;28;20030;-69
2021/12/02 08:17:53;;;;;;;390.88;212.48;;;34.50;61.30;;;;;;5023739;28;20037;-69
2021/12/02 08:20:22;;;;;;;21.38;12.27;;;34.50;62.40;;;;;;5024249;28;20020;-69
2021/12/02 08:22:49;;;;;;;25.40;14.85;;;34.60;61.80;;;;;;5031539;28;20108;-68
2021/12/02 08:25:17;;;;;;;14.65;9.43;;;34.70;63.00;;;;;;5001612;28;20030;-68
2021/12/02 08:27:44;;;;;;;21.65;12.60;;;34.70;62.10;;;;;;4994644;28;20034;-67
2021/12/02 08:30:13;;;;;;;19.45;8.40;;;34.70;61.40;;;;;;5012618;28;20034;-69
2021/12/02 08:32:42;;;;;;;13.45;9.52;;;34.70;60.60;;;;;;5028765;28;20048;-70
2021/12/02 08:35:14;;;;;;;19.52;10.70;;;34.60;60.80;;;;;;5026217;28;20056;-67
2021/12/02 08:37:46;;;;;;;19.00;9.02;;;34.80;62.30;;;;;;5009477;28;20026;-69
2021/12/02 08:40:22;;;;;;;46.72;20.65;;;34.70;61.10;;;;;;5000536;28;20018;-68
2021/12/02 08:42:49;;;;;;;27.23;10.73;;;34.50;63.90;;;;;;5008817;28;20060;-69
2021/12/02 08:45:16;;;;;;;21.60;11.02;;;34.50;63.40;;;;;;5012533;28;20448;-69
2021/12/02 08:47:44;;;;;;;18.98;10.00;;;34.50;63.00;;;;;;5007441;28;20038;-68
2021/12/02 08:50:15;;;;;;;112.55;46.65;;;34.50;61.50;;;;;;4993013;28;20073;-69
2021/12/02 08:52:42;;;;;;;20.10;10.57;;;34.50;62.70;;;;;;4995418;28;20062;-69
2021/12/02 08:55:10;;;;;;;24.30;12.27;;;34.50;61.80;;;;;;5006725;28;20045;-68
2021/12/02 08:57:37;;;;;;;28.92;12.88;;;34.50;63.30;;;;;;4996295;28;20089;-69
2021/12/02 09:00:06;;;;;;;556.47;308.77;;;34.50;63.60;;;;;;4996580;28;20381;-70
2021/12/02 09:02:33;;;;;;;87.03;45.75;;;34.60;64.30;;;;;;5023867;28;20064;-68
2021/12/02 09:05:00;;;;;;;44.17;23.92;;;34.50;64.20;;;;;;5033526;28;20029;-68
2021/12/02 09:07:27;;;;;;;22.77;12.63;;;34.40;63.60;;;;;;5006330;28;20380;-67
2021/12/02 09:09:54;;;;;;;31.23;17.30;;;34.40;61.50;;;;;;5013171;28;20083;-68
2021/12/02 09:12:20;;;;;;;37.50;18.17;;;34.30;64.00;;;;;;5012767;28;20050;-68
2021/12/02 09:14:47;;;;;;;261.25;144.07;;;34.20;64.60;;;;;;5005168;28;20030;-69
2021/12/02 09:17:14;;;;;;;103.30;60.20;;;34.30;66.00;;;;;;4994380;28;20019;-68
2021/12/02 09:19:40;;;;;;;71.07;41.13;;;34.40;64.90;;;;;;4977084;28;20495;-68
2021/12/02 09:22:07;;;;;;;33.00;15.07;;;34.30;65.70;;;;;;4976579;28;20035;-68
2021/12/02 09:24:34;;;;;;;30.30;13.63;;;34.20;64.70;;;;;;4976408;28;20027;-69
2021/12/02 09:27:01;;;;;;;55.85;30.92;;;34.10;65.10;;;;;;4977324;28;20513;-69
2021/12/02 09:29:28;;;;;;;146.43;83.50;;;34.20;65.80;;;;;;4976345;28;20398;-69
2021/12/02 09:31:56;;;;;;;76.18;46.10;;;34.20;65.00;;;;;;4976124;28;20029;-69
2021/12/02 09:34:22;;;;;;;51.45;24.48;;;34.10;66.20;;;;;;4976874;28;20393;-70
2021/12/02 09:36:50;;;;;;;38.20;17.98;;;34.00;66.50;;;;;;4977365;28;20031;-70
2021/12/02 09:39:17;;;;;;;102.88;40.28;;;33.80;66.90;;;;;;5010562;28;20033;-68
2021/12/02 09:41:46;;;;;;;94.88;42.03;;;33.80;67.10;;;;;;5008941;28;20025;-69
2021/12/02 09:44:17;;;;;;;82.65;39.72;;;33.70;67.40;;;;;;5015372;28;20041;-69
2021/12/02 09:46:43;;;;;;;29.25;14.15;;;33.70;68.10;;;;;;5015440;28;20194;-69
2021/12/02 09:49:12;;;;;;;30.77;17.85;;;33.60;68.10;;;;;;5015153;28;20103;-69
2021/12/02 09:51:47;;;;;;;44.20;20.45;;;33.50;68.50;;;;;;5011861;28;20030;-70
2021/12/02 09:54:18;;;;;;;38.40;17.90;;;33.50;69.40;;;;;;5009227;28;20030;-69
2021/12/02 09:56:49;;;;;;;42.90;19.90;;;33.40;69.20;;;;;;4991445;28;20023;-70
2021/12/02 10:02:02;;;;;;;157.25;116.63;;;33.30;70.00;;;;;;4992353;28;20015;-68
2021/12/02 10:04:30;;;;;;;56.92;38.40;;;33.30;70.00;;;;;;4991432;28;20041;-67
2021/12/02 10:07:24;;;;;;;82.40;55.40;;;33.30;70.20;;;;;;4985577;28;20060;-69
2021/12/02 10:10:02;;;;;;;54.30;23.73;;;33.20;70.20;;;;;;5013876;28;20045;-67
2021/12/02 10:12:33;;;;;;;51.00;23.25;;;33.20;70.50;;;;;;5006471;28;20077;-68
2021/12/02 10:15:06;;;;;;;49.25;28.00;;;33.20;70.20;;;;;;4990051;28;20422;-68
2021/12/02 10:17:39;;;;;;;44.00;24.27;;;33.00;71.20;;;;;;4977358;28;20058;-67
2021/12/02 10:23:10;;;;;;;54.95;29.73;;;33.10;71.30;;;;;;4974892;28;20477;-69
2021/12/02 10:25:37;;;;;;;51.67;28.63;;;33.10;71.70;;;;;;5007066;28;20050;-68
2021/12/02 10:28:12;;;;;;;51.58;28.73;;;33.00;72.20;;;;;;5008709;28;20046;-70
2021/12/02 10:30:45;;;;;;;61.00;30.27;;;32.90;72.40;;;;;;5006257;28;20020;-69
2021/12/02 10:33:13;;;;;;;64.72;31.80;;;32.90;72.30;;;;;;5008118;28;20022;-70
2021/12/02 10:35:49;;;;;;;54.33;30.73;;;32.90;72.80;;;;;;5010347;28;20489;-69
2021/12/02 10:38:39;;;;;;;42.83;19.98;;;32.80;72.70;;;;;;5003685;28;20037;-69
2021/12/02 10:41:16;;;;;;;30.88;15.45;;;32.80;72.80;;;;;;5009931;28;20032;-70
2021/12/02 10:44:06;;;;;;;46.45;19.55;;;32.60;72.40;;;;;;4993312;28;20056;-65
2021/12/02 10:46:42;;;;;;;48.88;25.38;;;32.60;73.40;;;;;;5000049;28;20044;-74
2021/12/02 10:49:16;;;;;;;46.95;22.67;;;32.50;73.80;;;;;;4997464;28;20088;-71
2021/12/02 10:51:46;;;;;;;60.17;24.75;;;32.50;74.70;;;;;;5010548;28;20064;-71
2021/12/02 10:54:17;;;;;;;59.47;25.17;;;32.50;74.20;;;;;;5012390;28;20030;-71
2021/12/02 10:56:50;;;;;;;53.13;26.03;;;32.50;74.60;;;;;;5008806;28;20033;-72
2021/12/02 10:59:26;;;;;;;42.58;24.77;;;32.50;74.80;;;;;;4995060;28;20033;-71
2021/12/02 11:01:56;;;;;;;57.25;21.55;;;32.40;75.50;;;;;;4991617;28;20496;-71
2021/12/02 11:04:22;;;;;;;48.20;25.13;;;32.40;75.20;;;;;;4994338;28;20045;-72
2021/12/02 11:06:51;;;;;;;46.50;25.05;;;32.50;74.60;;;;;;4999670;28;20101;-72
2021/12/02 11:09:24;;;;;;;40.33;20.55;;;32.40;76.30;;;;;;5011702;28;20030;-71
2021/12/02 11:12:08;;;;;;;55.17;28.75;;;32.40;76.10;;;;;;5009317;28;20036;-71
2021/12/02 11:14:42;;;;;;;54.50;26.02;;;32.30;76.20;;;;;;5003097;28;20113;-71
2021/12/02 11:17:13;;;;;;;47.63;25.17;;;32.40;76.50;;;;;;5004198;28;20018;-74
2021/12/02 11:19:44;;;;;;;48.42;26.10;;;32.30;76.20;;;;;;5010804;28;20115;-71
2021/12/02 11:22:15;;;;;;;45.63;24.35;;;32.20;76.50;;;;;;5013283;28;20105;-71
2021/12/02 11:24:43;;;;;;;70.60;33.87;;;32.10;77.70;;;;;;4997213;28;20053;-72
2021/12/02 11:27:21;;;;;;;67.85;31.10;;;32.10;77.20;;;;;;4992905;28;20087;-73
2021/12/02 11:29:59;;;;;;;50.50;27.33;;;32.10;78.20;;;;;;5013101;28;20029;-74
2021/12/02 11:32:48;;;;;;;52.53;27.23;;;32.10;77.90;;;;;;5011201;28;20057;-70
2021/12/02 11:35:19;;;;;;;40.83;25.00;;;32.10;77.60;;;;;;4993563;28;20030;-71
2021/12/02 11:37:59;;;;;;;43.67;24.23;;;32.00;77.40;;;;;;4993956;28;20057;-71
2021/12/02 11:40:29;;;;;;;42.25;22.88;;;31.90;78.20;;;;;;4990984;28;20452;-69
2021/12/02 11:42:56;;;;;;;47.13;23.38;;;31.90;78.70;;;;;;4983134;28;20101;-70
2021/12/02 11:45:26;;;;;;;46.33;22.10;;;31.80;78.30;;;;;;4994167;28;20238;-72
2021/12/02 11:47:54;;;;;;;48.72;23.83;;;31.80;79.00;;;;;;4981338;28;20113;-71
2021/12/02 11:50:23;;;;;;;45.80;24.30;;;31.80;79.40;;;;;;4974751;28;20043;-71
2021/12/02 11:52:49;;;;;;;49.85;24.30;;;31.70;79.20;;;;;;4976637;28;20492;-71
2021/12/02 11:55:19;;;;;;;49.22;23.00;;;31.70;80.10;;;;;;4985503;28;20058;-72
2021/12/02 11:57:47;;;;;;;43.22;22.00;;;31.70;80.70;;;;;;4977530;28;20033;-71
2021/12/02 12:00:17;;;;;;;46.45;20.85;;;31.60;79.50;;;;;;4982833;28;20053;-71
2021/12/02 12:03:08;;;;;;;46.00;20.48;;;31.50;80.90;;;;;;4994666;28;20054;-72
2021/12/02 12:05:45;;;;;;;36.95;19.90;;;31.50;81.20;;;;;;4997090;28;20436;-71
2021/12/02 12:08:33;;;;;;;38.60;19.45;;;31.50;82.00;;;;;;5013825;28;20030;-70
2021/12/02 12:11:25;;;;;;;33.45;19.13;;;31.40;82.40;;;;;;5013530;28;20034;-71
2021/12/02 12:14:05;;;;;;;40.60;19.42;;;31.40;82.70;;;;;;5003383;28;20039;-71
2021/12/02 12:16:34;;;;;;;54.50;22.40;;;31.40;82.60;;;;;;5013156;28;20030;-71
2021/12/02 12:19:18;;;;;;;42.92;23.27;;;31.40;84.10;;;;;;5008904;28;20037;-71
2021/12/02 12:21:56;;;;;;;42.78;23.80;;;31.40;84.10;;;;;;5013324;28;20026;-71
2021/12/02 12:24:47;;;;;;;56.15;29.83;;;31.40;85.00;;;;;;5002924;28;20381;-71
2021/12/02 12:27:24;;;;;;;65.55;35.13;;;31.30;85.00;;;;;;4978117;28;20105;-70
2021/12/02 12:30:11;;;;;;;53.33;31.35;;;31.30;85.40;;;;;;4978067;28;20201;-70
2021/12/02 12:35:31;;;;;;;51.60;27.17;;;31.30;86.30;;;;;;4984382;28;20035;-73
2021/12/02 12:38:01;;;;;;;55.05;27.63;;;31.30;86.80;;;;;;4984841;28;20385;-74
2021/12/02 12:40:40;;;;;;;101.63;32.05;;;31.30;87.50;;;;;;4986651;28;20573;-71
2021/12/02 12:43:09;;;;;;;66.18;37.00;;;31.20;87.70;;;;;;4977872;28;20031;-70
2021/12/02 12:45:39;;;;;;;114.95;69.47;;;31.20;87.90;;;;;;4978718;28;20034;-70
2021/12/02 12:48:08;;;;;;;65.38;36.22;;;31.20;87.80;;;;;;4977679;28;20034;-74
2021/12/02 12:50:38;;;;;;;90.20;49.10;;;31.10;87.90;;;;;;4995989;28;20421;-71
2021/12/02 12:53:05;;;;;;;68.25;32.60;;;31.10;88.30;;;;;;4996982;28;20030;-72
2021/12/02 12:55:35;;;;;;;68.38;34.53;;;31.00;88.50;;;;;;4986287;28;20034;-70
2021/12/02 12:58:11;;;;;;;85.50;42.55;;;31.00;89.40;;;;;;4977380;28;20359;-71
2021/12/02 13:00:42;;;;;;;68.13;35.15;;;31.00;90.00;;;;;;4977512;28;20019;-72
2021/12/02 13:03:14;;;;;;;66.33;33.17;;;30.90;90.30;;;;;;4977363;28;20031;-71
2021/12/02 13:05:50;;;;;;;62.45;32.55;;;30.90;90.30;;;;;;4978464;28;20272;-71
2021/12/02 13:08:20;;;;;;;69.93;33.70;;;30.80;90.60;;;;;;4986574;28;20038;-70